createdAt,value
2023-05-22T00:01:56.867Z,97976.59
2023-05-22T00:04:23.996Z,97981.72
2023-05-22T00:06:50.987Z,97985.03
2023-05-22T00:09:18.143Z,97996.22
2023-05-22T00:11:45.233Z,98001.41
2023-05-22T00:14:13.813Z,97985.69
2023-05-22T00:16:41.481Z,97990.47
2023-05-22T00:19:17.396Z,97984.56
2023-05-22T00:21:44.841Z,97991.72
2023-05-22T00:24:11.750Z,97996.63
2023-05-22T00:26:38.762Z,97987.88
2023-05-22T00:29:08.573Z,97985.47
2023-05-22T00:31:35.561Z,97982.50
2023-05-22T00:34:02.569Z,97987.28
2023-05-22T00:36:29.568Z,97980.84
2023-05-22T00:38:56.643Z,97980.66
2023-05-22T00:41:23.553Z,97974.72
2023-05-22T00:43:51.453Z,97976.81
2023-05-22T00:46:21.750Z,97974.97
2023-05-22T00:48:49.283Z,97969.62
2023-05-22T00:51:16.371Z,97974.03
2023-05-22T00:53:43.837Z,97970.09
2023-05-22T00:56:10.889Z,97972.31
2023-05-22T00:58:37.850Z,97965.47
2023-05-22T01:01:07.854Z,97969.34
2023-05-22T01:03:36.184Z,97963.56
2023-05-22T01:06:03.763Z,97961.84
2023-05-22T01:08:30.719Z,97969.34
2023-05-22T01:11:04.947Z,97963.59
2023-05-22T01:13:49.847Z,97960.81
2023-05-22T01:16:19.038Z,97963.19
2023-05-22T01:19:03.241Z,97959.84
2023-05-22T01:22:16.595Z,97960.59
2023-05-22T01:25:17.473Z,97962.59
2023-05-22T01:28:22.456Z,97957.78
2023-05-22T01:30:51.094Z,97963.47
2023-05-22T01:33:18.630Z,97965.81
2023-05-22T01:35:48.553Z,97961.81
2023-05-22T01:38:16.096Z,97956.56
2023-05-22T01:40:45.158Z,97967.78
2023-05-22T01:43:13.641Z,97958.19
2023-05-22T01:45:40.609Z,97954.72
2023-05-22T01:48:07.773Z,97961.06
2023-05-22T01:50:34.841Z,97963.09
2023-05-22T01:53:50.446Z,97957.94
2023-05-22T01:56:22.562Z,97958.97
2023-05-22T01:58:54.282Z,97950.66
2023-05-22T02:01:22.812Z,97954.31
2023-05-22T02:03:52.014Z,97953.69
2023-05-22T02:06:20.025Z,97947.78
2023-05-22T02:08:47.605Z,97948.84
2023-05-22T02:11:15.628Z,97948.09
2023-05-22T02:13:42.794Z,97944.84
2023-05-22T02:16:09.875Z,97938.06
2023-05-22T02:18:36.831Z,97948.81
2023-05-22T02:21:05.896Z,97946.75
2023-05-22T02:23:32.850Z,97940.84
2023-05-22T02:25:59.875Z,97941.69
2023-05-22T02:28:27.410Z,97943.09
2023-05-22T02:30:54.309Z,97941.47
2023-05-22T02:33:21.595Z,97934.81
2023-05-22T02:35:48.520Z,97941.44
2023-05-22T02:38:15.468Z,97940.16
2023-05-22T02:40:42.542Z,97937.41
2023-05-22T02:43:09.558Z,97930.91
2023-05-22T02:45:36.416Z,97935.28
2023-05-22T02:48:03.947Z,97929.03
2023-05-22T02:50:30.967Z,97925.84
2023-05-22T02:52:57.982Z,97931.59
2023-05-22T02:55:24.941Z,97935.00
2023-05-22T02:57:51.864Z,97928.75
2023-05-22T03:00:19.504Z,97936.94
2023-05-22T03:02:46.462Z,97939.59
2023-05-22T03:05:18.172Z,97939.28
2023-05-22T03:07:48.312Z,97932.84
2023-05-22T03:10:15.870Z,97931.31
2023-05-22T03:12:42.773Z,97935.22
2023-05-22T03:15:10.452Z,97948.38
2023-05-22T03:17:37.337Z,97944.81
2023-05-22T03:20:05.540Z,97951.00
2023-05-22T03:22:32.665Z,97942.66
2023-05-22T03:24:59.597Z,97944.97
2023-05-22T03:27:26.451Z,97946.56
2023-05-22T03:29:53.466Z,97944.88
2023-05-22T03:32:20.376Z,97939.84
2023-05-22T03:34:47.260Z,97943.22
2023-05-22T03:37:14.181Z,97941.38
2023-05-22T03:39:42.199Z,97945.31
2023-05-22T03:42:09.241Z,97975.41
2023-05-22T03:44:36.182Z,97987.09
2023-05-22T03:47:03.162Z,97965.75
2023-05-22T03:49:30.066Z,97964.81
2023-05-22T03:51:57.079Z,97971.84
2023-05-22T03:54:23.981Z,97971.28
2023-05-22T03:56:51.344Z,97974.22
2023-05-22T03:59:18.345Z,97971.84
2023-05-22T04:01:47.270Z,97970.47
2023-05-22T04:04:14.126Z,97962.50
2023-05-22T04:06:44.064Z,97967.59
2023-05-22T04:09:12.072Z,97971.25
2023-05-22T04:11:42.666Z,97968.13
2023-05-22T04:14:10.165Z,97974.37
2023-05-22T04:16:37.178Z,97965.66
2023-05-22T04:19:04.241Z,97968.69
2023-05-22T04:21:34.458Z,97970.19
2023-05-22T04:24:02.113Z,97968.78
2023-05-22T04:26:32.237Z,97971.50
2023-05-22T04:28:59.256Z,97968.34
2023-05-22T04:31:26.214Z,97970.34
2023-05-22T04:33:54.743Z,97977.00
2023-05-22T04:36:26.832Z,97972.22
2023-05-22T04:38:54.301Z,97983.00
2023-05-22T04:41:28.062Z,97978.00
2023-05-22T04:43:54.997Z,97975.84
2023-05-22T04:46:22.712Z,97974.37
2023-05-22T04:48:49.840Z,97972.13
2023-05-22T04:51:16.805Z,97978.41
2023-05-22T04:53:43.729Z,97979.13
2023-05-22T04:56:12.987Z,97978.41
2023-05-22T04:58:40.451Z,97978.88
2023-05-22T05:01:07.401Z,97981.31
2023-05-22T05:03:34.923Z,97988.13
2023-05-22T05:06:01.896Z,97993.38
2023-05-22T05:08:28.749Z,97995.31
2023-05-22T05:10:55.683Z,97991.13
2023-05-22T05:13:22.762Z,97999.13
2023-05-22T05:15:49.701Z,97994.13
2023-05-22T05:18:17.364Z,97997.28
2023-05-22T05:20:44.367Z,98000.75
2023-05-22T05:23:11.478Z,97994.13
2023-05-22T05:25:38.895Z,97991.31
2023-05-22T05:28:10.892Z,97996.78
2023-05-22T05:30:40.814Z,97992.28
2023-05-22T05:33:08.091Z,98006.13
2023-05-22T05:35:35.128Z,98005.53
2023-05-22T05:38:02.068Z,98002.88
2023-05-22T05:40:29.034Z,97989.66
2023-05-22T05:42:56.412Z,97994.97
2023-05-22T05:45:23.318Z,97994.97
2023-05-22T05:47:50.580Z,98001.91
2023-05-22T05:50:17.853Z,98007.69
2023-05-22T05:52:45.246Z,98001.88
2023-05-22T05:55:12.192Z,98004.87
2023-05-22T05:57:42.343Z,98014.31
2023-05-22T06:00:14.798Z,98022.06
2023-05-22T06:02:50.709Z,98014.63
2023-05-22T06:05:19.579Z,98007.50
2023-05-22T06:07:48.374Z,98010.00
2023-05-22T06:10:15.746Z,98008.97
2023-05-22T06:12:42.691Z,98005.50
2023-05-22T06:15:09.629Z,98004.81
2023-05-22T06:17:37.697Z,97995.06
2023-05-22T06:20:08.316Z,98007.53
2023-05-22T06:22:35.190Z,98004.16
2023-05-22T06:25:02.089Z,98001.19
2023-05-22T06:27:29.027Z,97998.50
2023-05-22T06:29:56.635Z,97998.47
2023-05-22T06:32:24.324Z,98002.56
2023-05-22T06:34:51.379Z,97999.78
2023-05-22T06:37:18.250Z,98003.75
2023-05-22T06:39:45.164Z,97996.97
2023-05-22T06:42:12.078Z,98005.38
2023-05-22T06:44:38.960Z,98000.41
2023-05-22T06:47:06.092Z,98011.31
2023-05-22T06:49:33.013Z,98008.41
2023-05-22T06:51:59.924Z,98010.47
2023-05-22T06:54:28.874Z,98008.03
2023-05-22T06:56:57.003Z,98013.72
2023-05-22T06:59:23.874Z,98015.41
2023-05-22T07:01:50.813Z,98012.25
2023-05-22T07:04:17.775Z,98005.06
2023-05-22T07:06:46.954Z,98010.22
2023-05-22T07:09:15.640Z,98015.78
2023-05-22T07:11:44.041Z,97995.66
2023-05-22T07:14:12.780Z,98001.41
2023-05-22T07:16:41.106Z,97991.41
2023-05-22T07:19:09.355Z,97998.28
2023-05-22T07:21:36.351Z,97994.22
2023-05-22T07:24:09.666Z,97998.19
2023-05-22T07:26:37.044Z,97999.84
2023-05-22T07:29:04.677Z,97993.50
2023-05-22T07:31:33.805Z,97996.09
2023-05-22T07:34:00.800Z,98000.44
2023-05-22T07:36:27.764Z,97993.41
2023-05-22T07:38:55.707Z,97999.44
2023-05-22T07:41:22.918Z,97986.72
2023-05-22T07:43:50.369Z,97991.47
2023-05-22T07:46:17.358Z,97990.13
2023-05-22T07:48:44.448Z,97992.84
2023-05-22T07:51:11.358Z,97989.91
2023-05-22T07:53:38.204Z,97996.75
2023-05-22T07:56:05.364Z,97995.69
2023-05-22T07:58:32.332Z,97998.63
2023-05-22T08:00:59.252Z,97995.03
2023-05-22T08:03:26.357Z,97998.78
2023-05-22T08:05:53.401Z,98001.41
2023-05-22T08:08:21.524Z,97997.25
2023-05-22T08:11:03.058Z,97995.94
2023-05-22T08:13:31.436Z,97994.13
2023-05-22T08:16:00.518Z,98001.75
2023-05-22T08:18:29.652Z,98002.31
2023-05-22T08:20:57.131Z,98006.88
2023-05-22T08:23:24.074Z,97998.41
2023-05-22T08:25:50.954Z,98000.56
2023-05-22T08:28:27.692Z,98001.19
2023-05-22T08:30:55.401Z,97995.34
2023-05-22T08:33:22.612Z,97998.13
2023-05-22T08:35:49.624Z,97994.50
2023-05-22T08:38:17.656Z,97997.41
2023-05-22T08:40:48.182Z,97991.47
2023-05-22T08:43:15.691Z,97998.81
2023-05-22T08:45:44.011Z,98000.47
2023-05-22T08:48:13.571Z,97995.19
2023-05-22T08:50:43.515Z,97995.41
2023-05-22T08:53:13.290Z,97980.56
2023-05-22T08:55:40.635Z,97991.06
2023-05-22T08:58:08.760Z,97987.38
2023-05-22T09:00:35.732Z,97991.66
2023-05-22T09:03:03.230Z,97989.91
2023-05-22T09:05:30.661Z,97991.06
2023-05-22T09:08:02.626Z,97985.28
2023-05-22T09:10:32.481Z,97982.22
2023-05-22T09:13:09.689Z,97987.47
2023-05-22T09:15:37.415Z,97983.63
2023-05-22T09:18:05.608Z,97987.13
2023-05-22T09:20:36.740Z,97980.75
2023-05-22T09:23:14.645Z,97989.06
2023-05-22T09:25:43.300Z,97988.44
2023-05-22T09:28:11.810Z,97983.16
2023-05-22T09:30:39.150Z,97985.31
2023-05-22T09:33:09.544Z,97985.44
2023-05-22T09:35:39.267Z,97984.94
2023-05-22T09:38:06.764Z,97982.00
2023-05-22T09:40:35.192Z,97978.19
2023-05-22T09:43:07.492Z,97979.00
2023-05-22T09:45:38.085Z,97986.72
2023-05-22T09:48:09.399Z,97981.41
2023-05-22T09:50:42.634Z,97978.50
2023-05-22T09:53:10.898Z,97984.75
2023-05-22T09:55:38.483Z,97978.03
2023-05-22T09:58:07.493Z,97978.50
2023-05-22T10:00:34.993Z,97973.84
2023-05-22T10:03:16.232Z,97978.31
2023-05-22T10:05:51.441Z,97976.81
2023-05-22T10:08:26.042Z,97978.53
2023-05-22T10:10:53.401Z,97970.97
2023-05-22T10:13:21.709Z,97974.53
2023-05-22T10:15:50.000Z,97969.09
2023-05-22T10:18:17.684Z,97967.09
2023-05-22T10:20:47.556Z,97962.59
2023-05-22T10:23:16.705Z,97954.03
2023-05-22T10:25:46.737Z,97949.38
2023-05-22T10:28:28.664Z,97960.84
2023-05-22T10:31:27.318Z,97948.06
2023-05-22T10:34:01.234Z,97953.84
2023-05-22T10:37:00.416Z,97953.50
2023-05-22T10:39:45.634Z,97956.25
2023-05-22T10:42:13.963Z,97951.25
2023-05-22T10:44:41.266Z,97955.31
2023-05-22T10:47:13.583Z,97966.78
2023-05-22T10:49:47.238Z,97957.28
2023-05-22T10:52:15.130Z,97947.41
2023-05-22T10:54:46.098Z,97945.88
2023-05-22T10:57:17.561Z,97953.22
2023-05-22T10:59:49.142Z,97949.66
2023-05-22T11:02:29.550Z,97947.88
2023-05-22T11:05:11.808Z,97943.47
2023-05-22T11:07:41.549Z,97940.75
2023-05-22T11:10:10.626Z,97938.50
2023-05-22T11:12:37.610Z,97928.22
2023-05-22T11:15:09.639Z,97928.47
2023-05-22T11:17:39.632Z,97925.44
2023-05-22T11:20:24.593Z,97914.09
2023-05-22T11:23:00.131Z,97918.50
2023-05-22T11:25:28.515Z,97916.88
2023-05-22T11:27:56.306Z,97918.44
2023-05-22T11:30:28.093Z,97905.63
2023-05-22T11:32:55.083Z,97900.41
2023-05-22T11:35:22.553Z,97908.03
2023-05-22T11:37:51.212Z,97902.94
2023-05-22T11:40:24.626Z,97896.91
2023-05-22T11:42:52.636Z,97898.22
2023-05-22T11:45:19.608Z,97898.22
2023-05-22T11:47:46.780Z,97898.47
2023-05-22T11:50:15.069Z,97898.03
2023-05-22T11:52:46.122Z,97886.91
2023-05-22T11:55:13.064Z,97890.50
2023-05-22T11:57:42.581Z,97888.88
2023-05-22T12:00:10.939Z,97900.25
2023-05-22T12:02:38.096Z,97906.22
2023-05-22T12:05:05.686Z,97901.09
2023-05-22T12:07:32.627Z,97890.94
2023-05-22T12:10:00.323Z,97889.56
2023-05-22T12:12:27.262Z,97898.63
2023-05-22T12:14:54.228Z,97892.63
2023-05-22T12:17:21.154Z,97888.59
2023-05-22T12:19:48.168Z,97881.78
2023-05-22T12:22:15.306Z,97895.69
2023-05-22T12:24:48.409Z,97893.28
2023-05-22T12:27:15.803Z,97890.41
2023-05-22T12:29:43.461Z,97893.06
2023-05-22T12:32:11.928Z,97883.59
2023-05-22T12:34:46.256Z,97889.09
2023-05-22T12:37:22.940Z,97887.03
2023-05-22T12:39:59.701Z,97892.06
2023-05-22T12:42:38.617Z,97882.09
2023-05-22T12:45:07.198Z,97890.88
2023-05-22T12:47:34.252Z,97881.91
2023-05-22T12:50:01.131Z,97875.13
2023-05-22T12:52:28.800Z,97891.97
2023-05-22T12:54:55.881Z,97890.41
2023-05-22T12:57:22.759Z,97891.25
2023-05-22T12:59:49.657Z,97888.59
2023-05-22T13:02:16.548Z,97886.09
2023-05-22T13:04:43.490Z,97884.19
2023-05-22T13:07:10.536Z,97885.94
2023-05-22T13:09:37.395Z,97893.88
2023-05-22T13:12:04.495Z,97892.00
2023-05-22T13:14:37.702Z,97889.91
2023-05-22T13:17:04.743Z,97882.44
2023-05-22T13:19:31.767Z,97889.28
2023-05-22T13:21:58.864Z,97893.31
2023-05-22T13:24:25.725Z,97898.37
2023-05-22T13:26:52.577Z,97890.50
2023-05-22T13:29:19.415Z,97890.59
2023-05-22T13:31:46.294Z,97882.19
2023-05-22T13:34:13.245Z,97882.91
2023-05-22T13:36:40.243Z,97882.37
2023-05-22T13:39:07.147Z,97873.69
2023-05-22T13:41:34.054Z,97872.44
2023-05-22T13:44:00.959Z,97873.59
2023-05-22T13:46:28.491Z,97872.47
2023-05-22T13:48:55.505Z,97869.38
2023-05-22T13:51:22.398Z,97866.13
2023-05-22T13:53:49.245Z,97881.13
2023-05-22T13:56:16.254Z,97864.31
2023-05-22T13:58:43.165Z,97863.91
2023-05-22T14:01:10.320Z,97856.16
2023-05-22T14:03:40.720Z,97859.47
2023-05-22T14:06:07.874Z,97858.78
2023-05-22T14:08:34.803Z,97853.88
2023-05-22T14:11:01.723Z,97848.38
2023-05-22T14:13:28.629Z,97846.94
2023-05-22T14:15:55.527Z,97847.84
2023-05-22T14:18:22.420Z,97837.13
2023-05-22T14:20:49.387Z,97829.28
2023-05-22T14:23:16.342Z,97836.37
2023-05-22T14:25:43.413Z,97827.88
2023-05-22T14:28:11.030Z,97844.69
2023-05-22T14:30:38.279Z,97847.62
2023-05-22T14:33:05.928Z,97850.19
2023-05-22T14:35:33.129Z,97854.88
2023-05-22T14:38:00.095Z,97844.81
2023-05-22T14:40:26.950Z,97844.56
2023-05-22T14:42:54.502Z,97844.28
2023-05-22T14:45:21.585Z,97838.31
2023-05-22T14:47:48.503Z,97835.63
2023-05-22T14:50:19.712Z,97838.19
2023-05-22T14:52:47.784Z,97837.28
2023-05-22T14:55:14.983Z,97835.13
2023-05-22T14:57:41.873Z,97827.47
2023-05-22T15:00:10.203Z,97822.88
2023-05-22T15:02:37.489Z,97820.44
2023-05-22T15:05:04.821Z,97820.09
2023-05-22T15:07:43.130Z,97828.78
2023-05-22T15:10:11.452Z,97829.16
2023-05-22T15:12:38.394Z,97823.06
2023-05-22T15:15:05.631Z,97824.78
2023-05-22T15:17:32.568Z,97815.41
2023-05-22T15:19:59.608Z,97814.53
2023-05-22T15:22:26.508Z,97807.91
2023-05-22T15:25:09.822Z,97807.59
2023-05-22T15:27:36.708Z,97816.97
2023-05-22T15:30:04.631Z,97817.34
2023-05-22T15:32:34.577Z,97814.81
2023-05-22T15:35:01.699Z,97808.38
2023-05-22T15:37:32.334Z,97812.66
2023-05-22T15:40:01.656Z,97813.81
2023-05-22T15:42:28.882Z,97818.00
2023-05-22T15:44:55.879Z,97818.81
2023-05-22T15:47:22.806Z,97813.75
2023-05-22T15:49:49.799Z,97814.59
2023-05-22T15:52:17.199Z,97808.16
2023-05-22T15:54:44.126Z,97803.34
2023-05-22T15:57:11.202Z,97802.72
2023-05-22T15:59:38.104Z,97803.94
2023-05-22T16:02:05.257Z,97808.59
2023-05-22T16:04:33.034Z,97806.59
2023-05-22T16:06:59.900Z,97801.03
2023-05-22T16:09:26.807Z,97799.03
2023-05-22T16:11:53.752Z,97799.75
2023-05-22T16:14:20.611Z,97799.47
2023-05-22T16:16:47.526Z,97792.63
2023-05-22T16:19:14.521Z,97795.09
2023-05-22T16:21:41.472Z,97791.25
2023-05-22T16:24:14.035Z,97781.03
2023-05-22T16:26:41.114Z,97785.13
2023-05-22T16:29:09.172Z,97779.31
2023-05-22T16:31:36.199Z,97778.66
2023-05-22T16:34:03.810Z,97782.53
2023-05-22T16:36:31.102Z,97795.94
2023-05-22T16:38:58.052Z,97797.41
2023-05-22T16:41:24.944Z,97792.88
2023-05-22T16:43:51.900Z,97798.28
2023-05-22T16:46:18.965Z,97784.41
2023-05-22T16:48:45.958Z,97782.25
2023-05-22T16:51:12.839Z,97782.50
2023-05-22T16:53:41.979Z,97784.69
2023-05-22T16:56:08.899Z,97780.59
2023-05-22T16:58:36.014Z,97778.72
2023-05-22T17:01:03.097Z,97780.66
2023-05-22T17:03:30.164Z,97783.84
2023-05-22T17:05:57.230Z,97788.00
2023-05-22T17:08:24.144Z,97788.06
2023-05-22T17:10:51.326Z,97789.97
2023-05-22T17:13:20.834Z,97786.09
2023-05-22T17:15:49.031Z,97789.53
2023-05-22T17:18:19.991Z,97793.06
2023-05-22T17:20:47.993Z,97797.78
2023-05-22T17:23:15.400Z,97801.62
2023-05-22T17:25:42.490Z,97803.03
2023-05-22T17:28:09.557Z,97811.88
2023-05-22T17:30:36.576Z,97810.00
2023-05-22T17:33:03.853Z,97811.38
2023-05-22T17:35:31.063Z,97805.13
2023-05-22T17:37:58.012Z,97797.84
2023-05-22T17:40:39.960Z,97802.22
2023-05-22T17:43:11.471Z,97806.03
2023-05-22T17:45:38.474Z,97795.72
2023-05-22T17:48:07.299Z,97796.72
2023-05-22T17:50:34.224Z,97804.81
2023-05-22T17:53:01.099Z,97811.84
2023-05-22T17:55:27.957Z,97801.34
2023-05-22T17:57:55.094Z,97806.87
2023-05-22T18:00:22.217Z,97809.12
2023-05-22T18:02:49.139Z,97802.16
2023-05-22T18:05:16.213Z,97805.13
2023-05-22T18:07:43.691Z,97801.03
2023-05-22T18:10:11.011Z,97808.34
2023-05-22T18:12:38.664Z,97801.66
2023-05-22T18:15:08.637Z,97804.53
2023-05-22T18:17:35.907Z,97816.81
2023-05-22T18:20:04.112Z,97811.53
2023-05-22T18:22:31.220Z,97805.87
2023-05-22T18:24:58.364Z,97813.87
2023-05-22T18:27:25.278Z,97820.16
2023-05-22T18:29:55.673Z,97820.19
2023-05-22T18:32:22.916Z,97821.00
2023-05-22T18:34:49.871Z,97819.63
2023-05-22T18:37:16.798Z,97828.37
2023-05-22T18:39:44.681Z,97827.34
2023-05-22T18:42:11.773Z,97821.06
2023-05-22T18:44:38.626Z,97825.34
2023-05-22T18:47:06.132Z,97816.91
2023-05-22T18:49:33.582Z,97825.84
2023-05-22T18:52:00.476Z,97825.16
2023-05-22T18:54:27.373Z,97822.91
2023-05-22T18:56:54.293Z,97825.41
2023-05-22T18:59:21.159Z,97822.63
2023-05-22T19:01:48.034Z,97833.09
2023-05-22T19:04:14.912Z,97841.06
2023-05-22T19:06:42.188Z,97837.03
2023-05-22T19:09:12.665Z,97840.47
2023-05-22T19:11:39.615Z,97829.31
2023-05-22T19:14:06.628Z,97832.78
2023-05-22T19:16:33.548Z,97838.09
2023-05-22T19:19:00.617Z,97834.88
2023-05-22T19:21:27.568Z,97835.72
2023-05-22T19:23:54.464Z,97841.91
2023-05-22T19:26:21.313Z,97849.22
2023-05-22T19:28:50.229Z,97846.59
2023-05-22T19:31:17.752Z,97848.75
2023-05-22T19:33:44.661Z,97856.66
2023-05-22T19:36:11.641Z,97855.81
2023-05-22T19:38:38.500Z,97856.41
2023-05-22T19:41:05.400Z,97854.78
2023-05-22T19:43:32.518Z,97851.19
2023-05-22T19:45:59.492Z,97855.06
2023-05-22T19:48:34.188Z,97858.25
2023-05-22T19:51:01.193Z,97848.16
2023-05-22T19:53:28.135Z,97856.50
2023-05-22T19:55:55.057Z,97855.38
2023-05-22T19:58:21.953Z,97853.59
2023-05-22T20:00:48.975Z,97843.94
2023-05-22T20:03:16.255Z,97847.62
2023-05-22T20:05:43.188Z,97851.25
2023-05-22T20:08:21.749Z,97855.62
2023-05-22T20:10:48.788Z,97851.75
2023-05-22T20:13:15.724Z,97844.53
2023-05-22T20:15:42.621Z,97850.56
2023-05-22T20:18:10.902Z,97853.31
2023-05-22T20:20:38.104Z,97845.88
2023-05-22T20:23:04.985Z,97842.44
2023-05-22T20:25:32.036Z,97841.06
2023-05-22T20:27:58.964Z,97847.12
2023-05-22T20:30:25.940Z,97844.16
2023-05-22T20:32:53.210Z,97841.56
2023-05-22T20:35:20.327Z,97846.78
2023-05-22T20:37:47.711Z,97842.38
2023-05-22T20:40:16.131Z,97841.81
2023-05-22T20:42:43.208Z,97844.06
2023-05-22T20:45:13.608Z,97838.16
2023-05-22T20:47:41.627Z,97836.47
2023-05-22T20:50:09.265Z,97840.97
2023-05-22T20:52:37.476Z,97844.94
2023-05-22T20:55:05.201Z,97841.06
2023-05-22T20:57:32.111Z,97833.38
2023-05-22T20:59:59.975Z,97832.91
2023-05-22T21:02:26.921Z,97834.75
2023-05-22T21:04:53.820Z,97836.84
2023-05-22T21:07:20.669Z,97831.19
2023-05-22T21:09:47.602Z,97827.44
2023-05-22T21:12:14.527Z,97834.97
2023-05-22T21:14:43.595Z,97827.75
2023-05-22T21:17:10.878Z,97818.53
2023-05-22T21:19:39.766Z,97824.69
2023-05-22T21:22:06.659Z,97826.56
2023-05-22T21:24:33.532Z,97817.75
2023-05-22T21:27:00.672Z,97823.03
2023-05-22T21:29:27.585Z,97818.66
2023-05-22T21:31:54.492Z,97823.69
2023-05-22T21:34:21.376Z,97823.88
2023-05-22T21:36:48.266Z,97829.22
2023-05-22T21:39:16.367Z,97832.12
2023-05-22T21:41:43.249Z,97827.78
2023-05-22T21:44:10.209Z,97832.22
2023-05-22T21:46:37.470Z,97826.97
2023-05-22T21:49:06.264Z,97836.97
2023-05-22T21:51:33.352Z,97832.03
2023-05-22T21:54:00.286Z,97829.53
2023-05-22T21:56:27.259Z,97827.97
2023-05-22T21:58:54.151Z,97822.06
2023-05-22T22:01:21.518Z,97823.47
2023-05-22T22:03:48.494Z,97826.81
2023-05-22T22:06:15.663Z,97820.78
2023-05-22T22:08:42.538Z,97814.69
2023-05-22T22:11:09.459Z,97807.88
2023-05-22T22:13:36.658Z,97821.06
2023-05-22T22:16:03.610Z,97821.37
2023-05-22T22:18:33.132Z,97818.78
2023-05-22T22:21:02.481Z,97813.37
2023-05-22T22:23:29.887Z,97819.81
2023-05-22T22:25:56.805Z,97826.25
2023-05-22T22:28:24.758Z,97816.56
2023-05-22T22:30:55.036Z,97823.88
2023-05-22T22:33:22.956Z,97820.84
2023-05-22T22:35:50.014Z,97816.22
2023-05-22T22:38:17.994Z,97824.94
2023-05-22T22:40:44.916Z,97824.28
2023-05-22T22:43:11.904Z,97826.75
2023-05-22T22:45:40.319Z,97823.31
2023-05-22T22:48:07.569Z,97826.91
2023-05-22T22:50:34.569Z,97828.94
2023-05-22T22:53:01.723Z,97833.91
2023-05-22T22:55:28.792Z,97832.94
2023-05-22T22:57:55.854Z,97831.41
2023-05-22T23:00:22.789Z,97828.87
2023-05-22T23:02:49.698Z,97824.59
2023-05-22T23:05:20.211Z,97825.28
2023-05-22T23:07:48.306Z,97832.91
2023-05-22T23:10:15.777Z,97828.66
2023-05-22T23:12:42.869Z,97837.91
2023-05-22T23:15:11.271Z,97831.16
2023-05-22T23:17:38.504Z,97828.37
2023-05-22T23:20:06.165Z,97827.44
2023-05-22T23:22:33.061Z,97819.03
2023-05-22T23:24:59.893Z,97819.19
2023-05-22T23:27:26.986Z,97828.63
2023-05-22T23:29:53.932Z,97826.31
2023-05-22T23:32:21.648Z,97828.34
2023-05-22T23:34:48.555Z,97821.72
2023-05-22T23:37:15.614Z,97823.25
2023-05-22T23:39:42.532Z,97822.16
2023-05-22T23:42:12.542Z,97824.59
2023-05-22T23:44:39.697Z,97814.47
2023-05-22T23:47:07.049Z,97812.97
2023-05-22T23:49:34.152Z,97815.84
2023-05-22T23:52:01.027Z,97812.09
2023-05-22T23:54:27.997Z,97811.56
2023-05-22T23:56:54.923Z,97809.22
2023-05-22T23:59:22.145Z,97809.81
